Allen Army Airfield Delta Junction Ft Greely US
ICAO: PABI
IATA:
Category: Medium
Scheduled Services:

Elevation: 1291 ft
TransAlt. 18000 ft.

Airport Communications:
ASOS:135.65
ATIS:132.075
TWEB:114.9
ANCHORAGE CNTR:135.3
CTAF:122.9
FAIRBANKS RDO:122.2
FORT GREELY GND:118.225
FT GREELY RANGE CON:38.3
BASE OPS:122.9
TWR:125.325

PABI Zoom In..

Runways:

(A) RW 01 length 9000 ft width 150 ft
---- / hdg 7

(B) RW 07 length 4077 ft width 90 ft
---- / hdg 69

(C) RW 10 length 6115 ft width 150 ft
ILS 111.10 / hdg 102

(D) RW 19 length 9000 ft width 150 ft
---- / hdg 187

(E) RW 25 length 4077 ft width 90 ft
---- / hdg 249

(F) RW 28 length 6115 ft width 150 ft
---- / hdg 282

Location; PABI
Day. 21 / Time. 14.01 Zulu
* Altimeter: 29.43
* Temperature: 05° c. 41°f.
* Wind from: 000° Speed 00 kn.
Dewpoint: 04° c.
Visibility: 10 Statute Miles.
Clouds: Few 100 ft.
Clouds: Scattered 7000 ft.
Clouds: Scattered 12000 ft.
Clouds: Scattered 18000 ft.
Conditions: Fog.

PABI 211401Z 00000KT 10SM FEW001 SCT070 SCT120 SCT180 05/04 A2943 RMK AO2 FG BNK DSNT N-NE SW-W T00500039 $


Wind - Calm.

 
 
jpsmedia.com for Web Design SOUNDCLOUD worldairports.se 2018   terms of use